createdAt,value
2018-07-17T00:00:03.693Z,54.09
2018-07-17T00:02:35.673Z,53.95
2018-07-17T00:05:07.700Z,53.28
2018-07-17T00:07:39.623Z,53.04
2018-07-17T00:10:11.251Z,53.72
2018-07-17T00:12:43.738Z,53.11
2018-07-17T00:15:15.955Z,54.06
2018-07-17T00:17:48.117Z,53.79
2018-07-17T00:20:19.890Z,53.37
2018-07-17T00:22:51.688Z,54.19
2018-07-17T00:25:23.658Z,54.08
2018-07-17T00:27:55.257Z,54.11
2018-07-17T00:30:26.695Z,53.94
2018-07-17T00:32:58.608Z,53.32
2018-07-17T00:35:30.193Z,53.92
2018-07-17T00:38:02.365Z,53.56
2018-07-17T00:40:34.501Z,55.61
2018-07-17T00:43:06.388Z,54.05
2018-07-17T00:45:38.185Z,55.37
2018-07-17T00:48:09.956Z,54.93
2018-07-17T00:50:41.479Z,55.58
2018-07-17T00:53:13.264Z,54.70
2018-07-17T00:55:44.783Z,55.27
2018-07-17T00:58:16.752Z,54.38
2018-07-17T01:00:47.199Z,54.54
2018-07-17T01:03:23.563Z,54.65
2018-07-17T01:05:59.767Z,54.26
2018-07-17T01:08:36.158Z,55.52
2018-07-17T01:11:12.715Z,54.09
2018-07-17T01:14:52.965Z,55.19
2018-07-17T01:17:25.561Z,55.10
2018-07-17T01:19:57.477Z,54.17
2018-07-17T01:22:28.814Z,53.86
2018-07-17T01:25:00.752Z,54.34
2018-07-17T01:27:32.282Z,53.06
2018-07-17T01:30:03.993Z,54.23
2018-07-17T01:32:35.571Z,51.68
2018-07-17T01:35:07.363Z,54.09
2018-07-17T01:37:38.854Z,56.18
2018-07-17T01:40:10.738Z,58.57
2018-07-17T01:42:42.787Z,57.85
2018-07-17T01:45:15.481Z,57.92
2018-07-17T01:47:46.743Z,56.69
2018-07-17T01:50:18.541Z,57.28
2018-07-17T01:52:50.180Z,59.20
2018-07-17T01:55:22.074Z,58.17
2018-07-17T01:57:53.966Z,61.62
2018-07-17T02:00:25.759Z,60.72
2018-07-17T02:02:57.754Z,61.13
2018-07-17T02:05:29.534Z,60.44
2018-07-17T02:08:01.403Z,61.91
2018-07-17T02:10:33.306Z,61.79
2018-07-17T02:13:05.084Z,59.59
2018-07-17T02:15:36.948Z,60.39
2018-07-17T02:18:08.528Z,61.05
2018-07-17T02:20:40.785Z,61.60
2018-07-17T02:23:12.231Z,61.75
2018-07-17T02:25:44.205Z,61.33
2018-07-17T02:28:15.829Z,62.82
2018-07-17T02:30:47.456Z,61.38
2018-07-17T02:33:19.110Z,61.67
2018-07-17T02:35:50.775Z,61.19
2018-07-17T02:38:22.488Z,59.97
2018-07-17T02:40:54.505Z,62.76
2018-07-17T02:43:26.254Z,59.82
2018-07-17T02:45:59.171Z,62.12
2018-07-17T02:48:31.000Z,63.43
2018-07-17T02:51:02.799Z,63.14
2018-07-17T02:53:36.263Z,62.06
2018-07-17T02:56:08.417Z,61.60
2018-07-17T02:58:40.249Z,62.40
2018-07-17T03:01:12.326Z,62.53
2018-07-17T03:03:44.496Z,61.12
2018-07-17T03:06:16.373Z,61.99
2018-07-17T03:08:47.656Z,60.17
2018-07-17T03:11:19.001Z,60.81
2018-07-17T03:13:50.187Z,61.25
2018-07-17T03:16:22.054Z,60.94
2018-07-17T03:18:54.044Z,63.00
2018-07-17T03:21:25.785Z,62.51
2018-07-17T03:23:57.788Z,60.78
2018-07-17T03:26:29.259Z,60.52
2018-07-17T03:29:01.299Z,62.92
2018-07-17T03:31:32.791Z,63.35
2018-07-17T03:34:04.562Z,61.76
2018-07-17T03:36:36.483Z,60.30
2018-07-17T03:39:09.648Z,62.21
2018-07-17T03:41:41.517Z,60.01
2018-07-17T03:44:12.966Z,60.26
2018-07-17T03:46:46.833Z,59.87
2018-07-17T03:49:18.574Z,61.85
2018-07-17T03:51:50.250Z,59.77
2018-07-17T03:54:22.072Z,62.08
2018-07-17T03:56:53.781Z,60.52
2018-07-17T03:59:26.745Z,60.98
2018-07-17T04:01:58.788Z,62.63
2018-07-17T04:04:30.328Z,61.87
2018-07-17T04:07:02.157Z,63.32
2018-07-17T04:09:33.546Z,63.85
2018-07-17T04:12:05.761Z,63.22
2018-07-17T04:14:37.516Z,63.21
2018-07-17T04:17:09.480Z,63.07
2018-07-17T04:19:41.262Z,62.96
2018-07-17T04:22:12.974Z,62.80
2018-07-17T04:24:45.081Z,63.94
2018-07-17T04:27:16.882Z,62.92
2018-07-17T04:29:49.293Z,62.08
2018-07-17T04:32:21.215Z,61.78
2018-07-17T04:34:53.115Z,62.74
2018-07-17T04:37:25.656Z,62.24
2018-07-17T04:39:57.601Z,62.64
2018-07-17T04:42:29.463Z,56.94
2018-07-17T04:45:01.227Z,51.13
2018-07-17T04:47:34.072Z,60.83
2018-07-17T04:50:05.785Z,61.50
2018-07-17T04:52:37.588Z,60.84
2018-07-17T04:55:09.340Z,61.21
2018-07-17T04:57:41.141Z,60.79
2018-07-17T05:00:13.145Z,61.40
2018-07-17T05:02:44.872Z,61.50
2018-07-17T05:05:16.877Z,62.00
2018-07-17T05:07:59.698Z,62.65
2018-07-17T05:10:31.330Z,61.53
2018-07-17T05:13:03.309Z,61.78
2018-07-17T05:15:35.096Z,60.83
2018-07-17T05:18:07.002Z,60.84
2018-07-17T05:20:39.020Z,61.25
2018-07-17T05:23:10.968Z,60.83
2018-07-17T05:25:42.778Z,60.13
2018-07-17T05:28:14.483Z,61.51
2018-07-17T05:30:46.311Z,61.30
2018-07-17T05:33:18.083Z,60.73
2018-07-17T05:35:49.667Z,60.55
2018-07-17T05:38:20.978Z,60.52
2018-07-17T05:40:52.936Z,59.90
2018-07-17T05:43:24.483Z,60.60
2018-07-17T05:45:56.188Z,60.58
2018-07-17T05:48:28.431Z,59.66
2018-07-17T05:51:00.035Z,59.48
2018-07-17T05:53:31.970Z,60.46
2018-07-17T05:56:03.819Z,60.18
2018-07-17T05:58:36.035Z,58.92
2018-07-17T06:01:07.768Z,59.08
2018-07-17T06:03:39.820Z,59.11
2018-07-17T06:06:11.582Z,60.19
2018-07-17T06:08:43.492Z,59.97
2018-07-17T06:11:14.941Z,59.32
2018-07-17T06:13:47.394Z,58.02
2018-07-17T06:16:19.835Z,57.54
2018-07-17T06:18:51.710Z,58.04
2018-07-17T06:21:23.588Z,58.83
2018-07-17T06:23:55.295Z,58.02
2018-07-17T06:26:27.048Z,58.47
2018-07-17T06:28:58.953Z,58.49
2018-07-17T06:31:30.781Z,59.20
2018-07-17T06:34:02.357Z,58.86
2018-07-17T06:36:34.426Z,58.70
2018-07-17T06:39:07.900Z,58.42
2018-07-17T06:41:39.881Z,58.28
2018-07-17T06:44:11.666Z,58.90
2018-07-17T06:46:43.384Z,57.26
2018-07-17T06:49:15.565Z,57.94
2018-07-17T06:51:47.326Z,57.51
2018-07-17T06:54:19.123Z,56.88
2018-07-17T06:56:50.820Z,57.76
2018-07-17T06:59:22.599Z,57.92
2018-07-17T07:01:54.075Z,58.07
2018-07-17T07:04:26.051Z,56.69
2018-07-17T07:06:58.067Z,56.41
2018-07-17T07:09:29.898Z,56.98
2018-07-17T07:12:01.580Z,56.61
2018-07-17T07:14:33.445Z,55.99
2018-07-17T07:17:05.312Z,57.00
2018-07-17T07:19:37.421Z,56.14
2018-07-17T07:22:09.037Z,56.05
2018-07-17T07:24:40.868Z,57.24
2018-07-17T07:27:12.552Z,56.13
2018-07-17T07:29:44.087Z,56.36
2018-07-17T07:32:15.744Z,55.42
2018-07-17T07:34:47.721Z,56.17
2018-07-17T07:37:19.638Z,55.69
2018-07-17T07:39:51.455Z,56.16
2018-07-17T07:42:23.501Z,56.28
2018-07-17T07:44:55.167Z,54.39
2018-07-17T07:47:26.949Z,54.54
2018-07-17T07:49:59.152Z,55.96
2018-07-17T07:52:30.846Z,55.86
2018-07-17T07:55:02.526Z,56.42
2018-07-17T07:57:34.127Z,55.46
2018-07-17T08:00:06.062Z,56.12
2018-07-17T08:02:37.750Z,56.43
2018-07-17T08:05:09.546Z,56.42
2018-07-17T08:07:41.229Z,55.28
2018-07-17T08:10:13.071Z,55.41
2018-07-17T08:12:44.756Z,55.67
2018-07-17T08:15:16.710Z,54.87
2018-07-17T08:17:48.541Z,55.30
2018-07-17T08:20:20.437Z,54.57
2018-07-17T08:22:52.097Z,54.59
2018-07-17T08:25:24.031Z,54.69
2018-07-17T08:27:55.820Z,54.26
2018-07-17T08:30:27.631Z,54.60
2018-07-17T08:32:59.394Z,54.64
2018-07-17T08:35:31.083Z,55.42
2018-07-17T08:38:02.773Z,54.98
2018-07-17T08:40:34.374Z,55.01
2018-07-17T08:43:06.039Z,55.13
2018-07-17T08:45:37.872Z,55.66
2018-07-17T08:48:09.637Z,53.93
2018-07-17T08:50:42.644Z,54.03
2018-07-17T08:53:14.537Z,54.88
2018-07-17T08:55:46.465Z,53.79
2018-07-17T08:58:18.216Z,54.07
2018-07-17T09:00:50.132Z,53.73
2018-07-17T09:03:22.235Z,53.87
2018-07-17T09:05:54.231Z,54.22
2018-07-17T09:08:25.994Z,52.98
2018-07-17T09:10:57.759Z,54.38
2018-07-17T09:13:29.574Z,53.17
2018-07-17T09:16:01.205Z,52.39
2018-07-17T09:18:32.959Z,52.98
2018-07-17T09:21:04.740Z,51.73
2018-07-17T09:23:36.494Z,50.95
2018-07-17T09:26:08.260Z,51.41
2018-07-17T09:28:39.963Z,51.56
2018-07-17T09:31:11.548Z,49.32
2018-07-17T09:33:43.537Z,50.46
2018-07-17T09:36:15.158Z,51.01
2018-07-17T09:38:46.894Z,51.39
2018-07-17T09:41:18.321Z,51.97
2018-07-17T09:43:50.058Z,51.52
2018-07-17T09:46:21.875Z,51.67
2018-07-17T09:48:53.573Z,51.36
2018-07-17T09:51:25.629Z,50.49
2018-07-17T09:53:57.364Z,51.75
2018-07-17T09:56:29.144Z,51.24
2018-07-17T09:59:00.857Z,49.17
2018-07-17T10:01:37.184Z,49.86
2018-07-17T10:04:08.916Z,51.00
2018-07-17T10:06:40.767Z,49.29
2018-07-17T10:09:12.403Z,49.47
2018-07-17T10:11:44.439Z,51.45
2018-07-17T10:14:15.874Z,50.51
2018-07-17T10:16:47.807Z,49.59
2018-07-17T10:19:19.658Z,49.37
2018-07-17T10:21:51.718Z,49.48
2018-07-17T10:24:23.537Z,48.58
2018-07-17T10:26:55.255Z,50.01
2018-07-17T10:29:26.924Z,50.46
2018-07-17T10:31:58.763Z,49.97
2018-07-17T10:34:30.642Z,48.98
2018-07-17T10:37:02.250Z,49.55
2018-07-17T10:39:34.076Z,48.44
2018-07-17T10:42:05.949Z,47.52
2018-07-17T10:44:37.588Z,49.27
2018-07-17T10:47:09.271Z,48.82
2018-07-17T10:49:41.205Z,47.85
2018-07-17T10:52:14.953Z,49.06
2018-07-17T10:54:46.712Z,49.53
2018-07-17T10:57:18.799Z,48.51
2018-07-17T10:59:50.921Z,48.86
2018-07-17T11:02:22.853Z,49.54
2018-07-17T11:04:54.546Z,49.90
2018-07-17T11:07:26.365Z,48.15
2018-07-17T11:09:58.013Z,47.55
2018-07-17T11:12:29.804Z,49.56
2018-07-17T11:15:01.579Z,48.19
2018-07-17T11:17:33.382Z,49.03
2018-07-17T11:20:05.054Z,48.63
2018-07-17T11:22:37.112Z,47.72
2018-07-17T11:25:08.829Z,46.98
2018-07-17T11:27:40.705Z,47.19
2018-07-17T11:30:12.494Z,47.17
2018-07-17T11:32:44.358Z,49.71
2018-07-17T11:35:15.981Z,49.48
2018-07-17T11:37:47.863Z,48.62
2018-07-17T11:40:19.487Z,50.98
2018-07-17T11:42:51.371Z,52.13
2018-07-17T11:45:23.054Z,50.07
2018-07-17T11:50:58.086Z,49.46
2018-07-17T11:53:30.084Z,45.79
2018-07-17T11:56:01.916Z,42.50
2018-07-17T11:58:33.626Z,32.89
2018-07-17T12:01:06.250Z,33.25
2018-07-17T12:03:37.875Z,35.13
2018-07-17T12:06:09.698Z,34.82
2018-07-17T12:08:41.318Z,43.69
2018-07-17T12:11:14.111Z,46.66
2018-07-17T12:13:45.719Z,48.04
2018-07-17T12:16:17.625Z,48.26
2018-07-17T12:18:49.233Z,48.07
2018-07-17T12:21:20.978Z,48.02
2018-07-17T12:23:52.584Z,47.29
2018-07-17T12:26:24.376Z,49.06
2018-07-17T12:28:55.932Z,48.82
2018-07-17T12:31:27.655Z,48.37
2018-07-17T12:33:59.325Z,49.05
2018-07-17T12:36:31.085Z,47.36
2018-07-17T12:39:02.764Z,44.02
2018-07-17T12:41:34.448Z,45.48
2018-07-17T12:44:06.344Z,47.87
2018-07-17T12:46:38.265Z,47.57
2018-07-17T12:49:09.752Z,46.93
2018-07-17T12:51:41.720Z,45.91
2018-07-17T12:54:13.245Z,44.77
2018-07-17T12:56:45.062Z,42.86
2018-07-17T12:59:16.775Z,48.17
2018-07-17T13:01:48.807Z,46.81
2018-07-17T13:04:20.423Z,47.02
2018-07-17T13:06:51.962Z,46.94
2018-07-17T13:09:23.671Z,45.97
2018-07-17T13:11:55.500Z,46.73
2018-07-17T13:14:27.140Z,45.30
2018-07-17T13:16:59.048Z,45.75
2018-07-17T13:19:30.801Z,47.91
2018-07-17T13:22:02.524Z,46.40
2018-07-17T13:24:33.935Z,45.62
2018-07-17T13:27:05.761Z,48.34
2018-07-17T13:29:37.433Z,46.80
2018-07-17T13:32:09.486Z,47.01
2018-07-17T13:34:41.017Z,47.01
2018-07-17T13:37:12.932Z,48.86
2018-07-17T13:39:44.996Z,48.87
2018-07-17T13:42:16.955Z,47.87
2018-07-17T13:44:48.765Z,49.25
2018-07-17T13:47:20.450Z,48.60
2018-07-17T13:49:52.013Z,47.88
2018-07-17T13:52:24.051Z,48.61
2018-07-17T13:54:55.617Z,49.06
2018-07-17T13:57:27.932Z,49.13
2018-07-17T13:59:59.622Z,48.97
2018-07-17T14:02:31.301Z,49.24
2018-07-17T14:05:03.175Z,48.82
2018-07-17T14:07:34.768Z,50.09
2018-07-17T14:10:06.552Z,50.36
2018-07-17T14:12:37.837Z,49.84
2018-07-17T14:15:09.345Z,49.91
2018-07-17T14:17:41.159Z,50.12
2018-07-17T14:20:13.496Z,49.95
2018-07-17T14:22:45.330Z,49.18
2018-07-17T14:25:16.749Z,49.23
2018-07-17T14:27:48.678Z,49.76
2018-07-17T14:30:20.570Z,49.40
2018-07-17T14:32:52.292Z,49.50
2018-07-17T14:35:23.915Z,50.44
2018-07-17T14:37:55.744Z,50.83
2018-07-17T14:40:27.428Z,51.38
2018-07-17T14:42:59.257Z,50.78
2018-07-17T14:45:30.890Z,50.75
2018-07-17T14:48:02.821Z,51.09
2018-07-17T14:50:34.458Z,51.08
2018-07-17T14:53:06.470Z,50.68
2018-07-17T14:55:38.189Z,50.21
2018-07-17T14:58:09.993Z,49.79
2018-07-17T15:00:41.556Z,50.86
2018-07-17T15:03:13.532Z,45.09
2018-07-17T15:05:45.182Z,47.60
2018-07-17T15:08:17.069Z,49.31
2018-07-17T15:10:48.906Z,50.75
2018-07-17T15:13:20.751Z,51.10
2018-07-17T15:15:52.439Z,52.00
2018-07-17T15:18:24.556Z,51.52
2018-07-17T15:20:56.437Z,51.47
2018-07-17T15:23:27.640Z,51.37
2018-07-17T15:25:58.735Z,52.94
2018-07-17T15:28:30.719Z,51.96
2018-07-17T15:31:02.343Z,51.03
2018-07-17T15:33:34.238Z,51.69
2018-07-17T15:36:05.832Z,51.44
2018-07-17T15:38:37.719Z,52.38
2018-07-17T15:41:09.186Z,51.03
2018-07-17T15:43:40.870Z,52.53
2018-07-17T15:46:12.505Z,50.67
2018-07-17T15:48:44.312Z,51.62
2018-07-17T15:51:16.049Z,49.44
2018-07-17T15:53:47.883Z,47.26
2018-07-17T15:56:19.500Z,47.69
2018-07-17T15:58:51.237Z,45.15
2018-07-17T16:01:22.910Z,45.07
2018-07-17T16:03:54.619Z,44.08
2018-07-17T16:06:26.276Z,44.12
2018-07-17T16:08:57.997Z,43.31
2018-07-17T16:11:29.975Z,43.52
2018-07-17T16:14:02.204Z,44.07
2018-07-17T16:16:33.952Z,44.82
2018-07-17T16:19:07.213Z,43.50
2018-07-17T16:21:39.409Z,43.05
2018-07-17T16:24:11.201Z,43.38
2018-07-17T16:26:43.759Z,43.78
2018-07-17T16:29:15.553Z,43.56
2018-07-17T16:31:47.161Z,43.82
2018-07-17T16:34:19.012Z,43.96
2018-07-17T16:36:50.809Z,43.11
2018-07-17T16:39:22.745Z,43.96
2018-07-17T16:41:54.248Z,43.03
2018-07-17T16:44:26.536Z,41.99
2018-07-17T16:46:58.036Z,42.33
2018-07-17T16:49:29.439Z,42.99
2018-07-17T16:52:01.448Z,43.11
2018-07-17T16:54:33.913Z,42.03
2018-07-17T16:57:05.769Z,43.55
2018-07-17T16:59:37.650Z,41.78
2018-07-17T17:02:09.333Z,42.59
2018-07-17T17:04:41.117Z,43.49
2018-07-17T17:07:12.761Z,41.69
2018-07-17T17:09:44.570Z,42.37
2018-07-17T17:12:16.323Z,42.30
2018-07-17T17:14:48.181Z,42.77
2018-07-17T17:17:19.813Z,44.15
2018-07-17T17:19:51.721Z,42.85
2018-07-17T17:22:23.550Z,44.26
2018-07-17T17:24:55.399Z,43.06
2018-07-17T17:27:27.081Z,43.08
2018-07-17T17:29:58.887Z,43.99
2018-07-17T17:32:30.631Z,42.36
2018-07-17T17:35:02.463Z,43.23
2018-07-17T17:37:34.110Z,43.30
2018-07-17T17:40:06.961Z,43.47
2018-07-17T17:42:38.674Z,43.11
2018-07-17T17:45:10.402Z,43.26
2018-07-17T17:47:42.312Z,43.13
2018-07-17T17:50:14.095Z,42.50
2018-07-17T17:52:45.851Z,43.41
2018-07-17T17:55:17.531Z,43.38
2018-07-17T17:57:48.991Z,42.26
2018-07-17T18:00:20.628Z,43.90
2018-07-17T18:02:52.793Z,42.98
2018-07-17T18:05:24.766Z,43.65
2018-07-17T18:07:56.452Z,42.45
2018-07-17T18:10:28.146Z,43.76
2018-07-17T18:12:59.891Z,43.01
2018-07-17T18:15:31.380Z,43.68
2018-07-17T18:18:03.280Z,43.59
2018-07-17T18:20:35.195Z,43.83
2018-07-17T18:23:07.020Z,43.83
2018-07-17T18:25:38.860Z,42.56
2018-07-17T18:28:10.246Z,42.20
2018-07-17T18:30:42.122Z,43.65
2018-07-17T18:33:13.821Z,42.42
2018-07-17T18:35:45.754Z,42.24
2018-07-17T18:38:17.369Z,43.34
2018-07-17T18:40:49.166Z,42.97
2018-07-17T18:43:20.834Z,43.14
2018-07-17T18:45:52.724Z,44.09
2018-07-17T18:48:24.074Z,43.09
2018-07-17T18:50:55.801Z,44.87
2018-07-17T18:53:27.540Z,44.30
2018-07-17T18:55:59.296Z,43.15
2018-07-17T18:58:31.234Z,43.80
2018-07-17T19:01:03.008Z,44.05
2018-07-17T19:03:34.713Z,44.22
2018-07-17T19:06:07.985Z,45.92
2018-07-17T19:08:39.715Z,45.43
2018-07-17T19:11:11.293Z,45.82
2018-07-17T19:13:42.731Z,46.72
2018-07-17T19:16:14.544Z,45.45
2018-07-17T19:18:46.321Z,45.70
2018-07-17T19:21:18.197Z,45.56
2018-07-17T19:23:50.262Z,45.14
2018-07-17T19:26:22.179Z,45.80
2018-07-17T19:28:54.214Z,44.84
2018-07-17T19:31:26.026Z,46.40
2018-07-17T19:33:58.000Z,44.74
2018-07-17T19:36:29.754Z,46.60
2018-07-17T19:39:01.448Z,45.90
2018-07-17T19:41:33.349Z,45.97
2018-07-17T19:44:05.267Z,46.55
2018-07-17T19:46:37.207Z,45.04
2018-07-17T19:49:08.909Z,45.29
2018-07-17T19:51:40.873Z,46.74
2018-07-17T19:54:12.684Z,46.05
2018-07-17T19:56:44.747Z,45.45
2018-07-17T19:59:16.424Z,44.91
2018-07-17T20:01:48.382Z,45.37
2018-07-17T20:04:20.053Z,44.69
2018-07-17T20:06:52.095Z,45.37
2018-07-17T20:09:23.910Z,44.65
2018-07-17T20:11:55.497Z,45.54
2018-07-17T20:14:27.187Z,45.55
2018-07-17T20:16:58.792Z,47.02
2018-07-17T20:19:30.528Z,45.46
2018-07-17T20:22:02.358Z,45.39
2018-07-17T20:24:33.887Z,46.27
2018-07-17T20:27:05.667Z,44.76
2018-07-17T20:29:37.262Z,43.86
2018-07-17T20:32:09.187Z,45.02
2018-07-17T20:34:40.820Z,44.76
2018-07-17T20:37:13.928Z,44.59
2018-07-17T20:39:45.316Z,44.04
2018-07-17T20:42:17.610Z,44.45
2018-07-17T20:44:49.266Z,44.43
2018-07-17T20:47:21.412Z,45.82
2018-07-17T20:49:53.125Z,45.91
2018-07-17T20:52:25.140Z,45.73
2018-07-17T20:54:57.453Z,47.56
2018-07-17T20:57:29.463Z,46.01
2018-07-17T21:00:01.284Z,48.05
2018-07-17T21:02:32.841Z,47.71
2018-07-17T21:05:04.872Z,47.30
2018-07-17T21:07:36.880Z,49.14
2018-07-17T21:10:08.570Z,46.92
2018-07-17T21:12:40.458Z,48.51
2018-07-17T21:15:12.116Z,48.40
2018-07-17T21:17:43.929Z,48.05
2018-07-17T21:20:15.718Z,48.54
2018-07-17T21:22:47.480Z,47.55
2018-07-17T21:25:19.294Z,49.01
2018-07-17T21:27:50.873Z,46.53
2018-07-17T21:30:22.732Z,45.70
2018-07-17T21:32:54.601Z,46.48
2018-07-17T21:35:26.494Z,44.82
2018-07-17T21:37:58.588Z,46.72
2018-07-17T21:40:30.319Z,45.27
2018-07-17T21:43:01.981Z,45.48
2018-07-17T21:45:33.937Z,45.41
2018-07-17T21:48:06.130Z,45.79
2018-07-17T21:50:37.805Z,45.87
2018-07-17T21:53:09.604Z,45.87
2018-07-17T21:55:41.287Z,45.04
2018-07-17T21:58:13.020Z,46.37
2018-07-17T22:00:44.835Z,46.83
2018-07-17T22:03:16.839Z,45.77
2018-07-17T22:05:48.487Z,46.30
2018-07-17T22:08:20.359Z,46.25
2018-07-17T22:10:51.980Z,46.82
2018-07-17T22:13:24.146Z,46.56
2018-07-17T22:15:55.757Z,46.29
2018-07-17T22:18:27.764Z,46.38
2018-07-17T22:20:59.200Z,45.48
2018-07-17T22:23:32.507Z,44.94
2018-07-17T22:26:04.215Z,45.55
2018-07-17T22:28:36.145Z,45.54
2018-07-17T22:31:07.997Z,46.49
2018-07-17T22:33:39.703Z,45.33
2018-07-17T22:36:11.283Z,45.73
2018-07-17T22:38:43.151Z,46.43
2018-07-17T22:41:14.960Z,46.45
2018-07-17T22:43:46.768Z,46.31
2018-07-17T22:46:18.767Z,46.28
2018-07-17T22:48:51.170Z,46.81
2018-07-17T22:51:22.785Z,47.36
2018-07-17T22:53:54.680Z,47.67
2018-07-17T22:56:26.106Z,46.06
2018-07-17T22:58:57.918Z,47.67
2018-07-17T23:01:29.673Z,47.67
2018-07-17T23:04:01.718Z,47.94
2018-07-17T23:06:33.049Z,48.15
2018-07-17T23:09:05.653Z,46.44
2018-07-17T23:11:37.554Z,45.76
2018-07-17T23:14:09.826Z,46.19
2018-07-17T23:16:41.669Z,45.68
2018-07-17T23:19:13.498Z,44.73
2018-07-17T23:21:45.069Z,43.82
2018-07-17T23:24:17.003Z,44.96
2018-07-17T23:26:49.137Z,44.78
2018-07-17T23:29:20.769Z,43.93
2018-07-17T23:31:52.497Z,43.73
2018-07-17T23:34:24.320Z,43.28
2018-07-17T23:36:56.006Z,44.49
2018-07-17T23:39:27.573Z,44.84
2018-07-17T23:41:59.233Z,45.44
2018-07-17T23:44:30.791Z,43.38
2018-07-17T23:47:02.333Z,43.50
2018-07-17T23:49:38.735Z,45.85
2018-07-17T23:52:10.500Z,44.61
2018-07-17T23:54:42.204Z,44.07
2018-07-17T23:57:15.430Z,45.04
2018-07-17T23:59:47.631Z,45.75
